TAF KRUT
KRUT 280531Z 2806/2906 13004KT P6SM FEW250 FM281500 VRB03KT P6SM SCT080 FM282300 VRB03KT P6SM BKN035 FM290300 10005KT P6SM VCSH SCT018 OVC025=
METAR KRUT
WC KRUT
WS KRUT
WV KRUT